Time;durP1;ratioP1;P1;durP2;ratioP2;P2;SDS_P1;SDS_P2;PMS_P1;PMS_P2;Temp;Humidity;BMP_temperature;BMP_pressure;BME280_temperature;BME280_humidity;BME280_pressure;Samples;Min_cycle;Max_cycle;Signal;HPM_P1;HPM_P2
2021/04/30 00:00:35;;;;;;;;;;;;;;;6.08;93.29;100905.41;5048371;28;2047;-79
2021/04/30 00:03:08;;;;;;;;;;;;;;;6.08;93.09;100894.44;5035031;28;2003;-80
2021/04/30 00:05:33;;;;;;;;;;;;;;;6.06;93.21;100899.44;5029246;28;987;-79
2021/04/30 00:08:00;;;;;;;;;;;;;;;6.03;93.21;100896.16;5056988;28;1706;-79
2021/04/30 00:10:27;;;;;;;;;;;;;;;6.01;93.29;100892.13;5048318;28;1895;-79
2021/04/30 00:12:53;;;;;;;;;;;;;;;6.00;93.20;100896.81;5046051;28;1651;-79
2021/04/30 00:15:19;;;;;;;;;;;;;;;6.01;93.65;100895.69;5041092;28;1612;-80
2021/04/30 00:17:44;;;;;;;;;;;;;;;5.98;93.19;100906.44;5043830;28;1902;-80
2021/04/30 00:20:12;;;;;;;;;;;;;;;5.89;93.34;100905.56;5035390;28;1659;-79
2021/04/30 00:22:38;;;;;;;;;;;;;;;5.82;93.15;100904.03;5049247;28;1788;-79
2021/04/30 00:25:04;;;;;;;;;;;;;;;5.81;93.25;100907.09;5047288;28;1609;-80
2021/04/30 00:27:29;;;;;;;;;;;;;;;5.84;93.79;100909.22;5049221;28;1144;-79
2021/04/30 00:29:55;;;;;;;;;;;;;;;5.84;93.87;100910.03;5045307;28;1859;-79
2021/04/30 00:32:20;;;;;;;;;;;;;;;5.85;93.90;100921.81;5029889;28;959;-80
2021/04/30 00:34:46;;;;;;;;;;;;;;;5.87;93.91;100911.34;5041677;28;1787;-80
2021/04/30 00:37:11;;;;;;;;;;;;;;;5.86;93.70;100908.91;5033061;28;1875;-79
2021/04/30 00:39:36;;;;;;;;;;;;;;;5.73;93.34;100905.09;5049294;28;1802;-80
2021/04/30 00:42:03;;;;;;;;;;;;;;;5.58;93.02;100909.00;5052439;28;1101;-79
2021/04/30 00:44:29;;;;;;;;;;;;;;;5.44;92.98;100906.28;5050241;28;1576;-80
2021/04/30 00:46:54;;;;;;;;;;;;;;;5.33;93.46;100913.91;5045599;28;1764;-79
2021/04/30 00:49:20;;;;;;;;;;;;;;;5.26;94.00;100917.06;5029850;28;1239;-79
2021/04/30 00:51:46;;;;;;;;;;;;;;;5.21;94.39;100916.38;5036315;28;1761;-79
2021/04/30 00:54:11;;;;;;;;;;;;;;;5.16;94.37;100919.22;5052776;28;876;-79
2021/04/30 00:56:36;;;;;;;;;;;;;;;5.13;94.28;100915.16;5068270;28;1443;-79
2021/04/30 00:59:03;;;;;;;;;;;;;;;5.09;94.09;100916.88;5075271;28;1943;-79
2021/04/30 01:01:28;;;;;;;;;;;;;;;5.01;94.06;100917.59;5051715;28;888;-80
2021/04/30 01:03:54;;;;;;;;;;;;;;;4.88;93.83;100922.75;5050570;28;1781;-79
2021/04/30 01:06:20;;;;;;;;;;;;;;;4.76;93.86;100921.59;5051422;28;917;-79
2021/04/30 01:08:46;;;;;;;;;;;;;;;4.63;94.45;100928.69;5049459;28;2147;-79
2021/04/30 01:11:12;;;;;;;;;;;;;;;4.53;94.76;100929.69;5044039;28;1654;-79
2021/04/30 01:13:37;;;;;;;;;;;;;;;4.43;94.16;100924.38;5038346;28;1918;-80
2021/04/30 01:16:03;;;;;;;;;;;;;;;4.39;94.34;100934.31;5046205;28;1882;-79
2021/04/30 01:18:39;;;;;;;;;;;;;;;4.33;94.57;100936.34;5040048;28;1958;-80
2021/04/30 01:21:05;;;;;;;;;;;;;;;4.31;94.72;100935.81;5049664;28;1810;-79
2021/04/30 01:23:30;;;;;;;;;;;;;;;4.28;95.32;100933.69;5050902;28;1592;-79
2021/04/30 01:25:55;;;;;;;;;;;;;;;4.24;95.43;100935.38;5036076;28;1785;-79
2021/04/30 01:28:20;;;;;;;;;;;;;;;4.19;95.54;100933.56;5051317;28;2872;-80
2021/04/30 01:30:46;;;;;;;;;;;;;;;4.16;95.89;100941.53;5042033;28;1622;-79
2021/04/30 01:33:19;;;;;;;;;;;;;;;4.18;95.78;100940.13;5056125;28;1848;-78
2021/04/30 01:35:45;;;;;;;;;;;;;;;4.22;95.64;100940.31;5054451;28;1780;-79
2021/04/30 01:38:11;;;;;;;;;;;;;;;4.30;96.65;100945.13;5056148;28;1949;-79
2021/04/30 01:40:37;;;;;;;;;;;;;;;4.33;95.99;100939.88;5056784;28;1576;-79
2021/04/30 01:43:10;;;;;;;;;;;;;;;4.38;96.34;100938.16;5057067;28;1983;-79
2021/04/30 01:45:56;;;;;;;;;;;;;;;4.43;96.35;100947.09;5046711;28;1731;-79
2021/04/30 01:48:27;;;;;;;;;;;;;;;4.41;96.48;100953.97;5079097;28;2317;-79
2021/04/30 01:50:54;;;;;;;;;;;;;;;4.40;96.73;100960.56;5049092;28;2027;-79
2021/04/30 01:53:23;;;;;;;;;;;;;;;4.42;96.64;100966.53;5051334;28;1851;-79
2021/04/30 01:55:49;;;;;;;;;;;;;;;4.37;96.49;100961.16;5046849;28;1652;-79
2021/04/30 01:58:16;;;;;;;;;;;;;;;4.32;96.35;100962.84;5050253;28;2202;-79
2021/04/30 02:00:43;;;;;;;;;;;;;;;4.28;95.89;100961.00;5049780;28;2099;-79
2021/04/30 02:03:08;;;;;;;;;;;;;;;4.20;95.94;100961.69;5050851;28;888;-79
2021/04/30 02:05:34;;;;;;;;;;;;;;;4.15;96.65;100962.56;5043081;28;1666;-80
2021/04/30 02:08:08;;;;;;;;;;;;;;;4.05;95.68;100960.00;5045962;28;1545;-79
2021/04/30 02:10:34;;;;;;;;;;;;;;;3.97;96.15;100960.69;5031962;28;912;-79
2021/04/30 02:12:59;;;;;;;;;;;;;;;3.86;95.58;100966.28;5040078;28;1766;-79
2021/04/30 02:15:27;;;;;;;;;;;;;;;3.80;96.29;100959.28;5050490;28;1063;-79
2021/04/30 02:17:53;;;;;;;;;;;;;;;3.74;96.61;100961.28;5040609;28;1936;-79
2021/04/30 02:20:19;;;;;;;;;;;;;;;3.69;95.95;100960.53;5046044;28;2230;-79
2021/04/30 02:22:45;;;;;;;;;;;;;;;3.67;96.48;100969.03;5047748;28;1007;-79
2021/04/30 02:25:12;;;;;;;;;;;;;;;3.66;96.87;100966.59;5041724;28;1792;-79
2021/04/30 02:27:41;;;;;;;;;;;;;;;3.63;96.17;100978.88;5029845;28;801;-79
2021/04/30 02:30:12;;;;;;;;;;;;;;;3.58;96.06;100978.94;5042290;28;2095;-79
2021/04/30 02:32:38;;;;;;;;;;;;;;;3.53;96.59;100981.75;5031153;28;1848;-79
2021/04/30 02:35:12;;;;;;;;;;;;;;;3.53;97.05;100993.50;5042848;28;1603;-79
2021/04/30 02:37:41;;;;;;;;;;;;;;;3.54;97.07;100995.13;5029580;28;1945;-79
2021/04/30 02:40:08;;;;;;;;;;;;;;;3.47;96.17;100994.66;5039388;28;1608;-80
2021/04/30 02:42:34;;;;;;;;;;;;;;;3.42;96.99;100991.19;5048276;28;1643;-79
2021/04/30 02:45:02;;;;;;;;;;;;;;;3.36;96.46;100996.72;5049578;28;1689;-79
2021/04/30 02:47:31;;;;;;;;;;;;;;;3.32;97.09;101000.31;5042971;28;1619;-79
2021/04/30 02:49:59;;;;;;;;;;;;;;;3.38;97.02;101001.88;5030384;28;1248;-79
2021/04/30 02:52:26;;;;;;;;;;;;;;;3.39;97.27;101003.50;5034691;28;1766;-79
2021/04/30 02:54:52;;;;;;;;;;;;;;;3.37;97.01;101008.44;5039956;28;1973;-79
2021/04/30 02:57:18;;;;;;;;;;;;;;;3.34;96.79;101003.53;5029276;28;1871;-79
2021/04/30 02:59:43;;;;;;;;;;;;;;;3.34;96.43;101003.53;5045772;28;2098;-79
2021/04/30 03:02:09;;;;;;;;;;;;;;;3.41;96.49;101000.47;5049088;28;2223;-79
2021/04/30 03:04:34;;;;;;;;;;;;;;;3.41;96.71;101001.31;5050475;28;839;-79
2021/04/30 03:07:00;;;;;;;;;;;;;;;3.36;96.92;101013.09;5049053;28;1670;-79
2021/04/30 03:09:25;;;;;;;;;;;;;;;3.32;97.23;101012.06;5046413;28;1987;-79
2021/04/30 03:11:50;;;;;;;;;;;;;;;3.28;97.34;101002.81;5029374;28;853;-80
2021/04/30 03:14:16;;;;;;;;;;;;;;;3.26;96.59;101007.75;5037015;28;1989;-79
2021/04/30 03:16:41;;;;;;;;;;;;;;;3.22;96.94;101017.63;5028252;28;1027;-79
2021/04/30 03:19:09;;;;;;;;;;;;;;;3.18;97.22;101022.84;5038203;28;1894;-79
2021/04/30 03:21:34;;;;;;;;;;;;;;;3.17;97.12;101026.66;5065127;28;918;-80
2021/04/30 03:23:59;;;;;;;;;;;;;;;3.16;96.98;101029.69;5048812;28;1603;-79
2021/04/30 03:26:25;;;;;;;;;;;;;;;3.16;97.46;101032.41;5047495;28;1926;-79
2021/04/30 03:28:50;;;;;;;;;;;;;;;3.25;97.22;101036.13;5039488;28;1911;-79
2021/04/30 03:31:15;;;;;;;;;;;;;;;3.39;97.46;101037.06;5048195;28;898;-79
2021/04/30 03:33:41;;;;;;;;;;;;;;;3.53;97.69;101037.19;5047595;28;1683;-79
2021/04/30 03:36:06;;;;;;;;;;;;;;;3.67;98.25;101042.75;5049318;28;876;-79
2021/04/30 03:38:34;;;;;;;;;;;;;;;3.79;98.12;101036.03;5048739;28;1631;-79
2021/04/30 03:40:59;;;;;;;;;;;;;;;3.88;98.42;101043.31;5037140;28;1840;-79
2021/04/30 03:43:25;;;;;;;;;;;;;;;3.95;98.90;101037.47;5035256;28;1755;-79
2021/04/30 03:45:51;;;;;;;;;;;;;;;4.01;98.52;101051.88;5044496;28;1544;-79
2021/04/30 03:48:20;;;;;;;;;;;;;;;4.04;98.02;101043.09;5041385;28;1898;-79
2021/04/30 03:50:46;;;;;;;;;;;;;;;4.09;98.79;101043.03;5026985;28;1627;-79
2021/04/30 03:53:12;;;;;;;;;;;;;;;4.11;98.64;101041.63;5027422;28;1011;-79
2021/04/30 03:55:37;;;;;;;;;;;;;;;4.15;98.43;101050.03;5042841;28;1828;-79
2021/04/30 03:58:02;;;;;;;;;;;;;;;4.19;98.64;101050.25;5045839;28;1879;-79
2021/04/30 04:00:28;;;;;;;;;;;;;;;4.21;97.98;101048.06;5030506;28;999;-79
2021/04/30 04:02:53;;;;;;;;;;;;;;;4.24;98.22;101061.13;5047924;28;1813;-79
2021/04/30 04:05:19;;;;;;;;;;;;;;;4.27;98.14;101055.91;5035661;28;1694;-79
2021/04/30 04:07:44;;;;;;;;;;;;;;;4.33;98.30;101062.91;5033781;28;1891;-79
2021/04/30 04:10:10;;;;;;;;;;;;;;;4.38;98.74;101059.28;5045584;28;2083;-79
2021/04/30 04:12:35;;;;;;;;;;;;;;;4.44;98.17;101063.53;5053840;28;1079;-79
2021/04/30 04:15:01;;;;;;;;;;;;;;;4.51;98.59;101065.91;5037155;28;1930;-79
2021/04/30 04:17:26;;;;;;;;;;;;;;;4.57;98.18;101070.19;5045486;28;2055;-79
2021/04/30 04:19:51;;;;;;;;;;;;;;;4.64;98.66;101069.81;5074316;28;1697;-80
2021/04/30 04:22:17;;;;;;;;;;;;;;;4.66;98.70;101073.88;5048979;28;1106;-79
2021/04/30 04:24:43;;;;;;;;;;;;;;;4.73;98.99;101084.44;5049001;28;1667;-79
2021/04/30 04:27:09;;;;;;;;;;;;;;;4.79;98.73;101076.97;5048945;28;1898;-79
2021/04/30 04:29:35;;;;;;;;;;;;;;;4.85;98.47;101087.53;5041140;28;1701;-79
2021/04/30 04:32:01;;;;;;;;;;;;;;;4.92;98.54;101095.34;5043197;28;991;-79
2021/04/30 04:34:26;;;;;;;;;;;;;;;4.95;98.92;101096.66;5033205;28;1390;-79
2021/04/30 04:36:52;;;;;;;;;;;;;;;4.95;98.38;101097.50;5048589;28;854;-79
2021/04/30 04:39:17;;;;;;;;;;;;;;;4.96;98.70;101099.09;5062713;28;1709;-79
2021/04/30 04:41:43;;;;;;;;;;;;;;;4.98;98.19;101118.78;5063413;28;1648;-80
2021/04/30 04:44:08;;;;;;;;;;;;;;;5.03;98.32;101115.13;5047969;28;2031;-80
2021/04/30 04:46:33;;;;;;;;;;;;;;;5.09;98.50;101112.03;5049008;28;888;-79
2021/04/30 04:48:59;;;;;;;;;;;;;;;5.16;98.51;101110.84;5029678;28;1883;-79
2021/04/30 04:51:24;;;;;;;;;;;;;;;5.22;98.28;101120.56;5029718;28;933;-79
2021/04/30 04:53:49;;;;;;;;;;;;;;;5.28;98.39;101116.63;5043863;28;1740;-79
2021/04/30 04:56:15;;;;;;;;;;;;;;;5.33;98.63;101124.75;5048146;28;833;-79
2021/04/30 04:58:40;;;;;;;;;;;;;;;5.38;98.58;101116.47;5041133;28;2109;-79
2021/04/30 05:01:06;;;;;;;;;;;;;;;5.45;98.33;101116.88;5047549;28;1671;-80
2021/04/30 05:03:32;;;;;;;;;;;;;;;5.51;98.18;101120.31;5050251;28;824;-80
2021/04/30 05:05:57;;;;;;;;;;;;;;;5.61;98.27;101122.06;5049794;28;1702;-79
2021/04/30 05:08:22;;;;;;;;;;;;;;;5.75;98.10;101117.38;5048838;28;2079;-79
2021/04/30 05:10:48;;;;;;;;;;;;;;;5.90;98.02;101127.25;5034715;28;1579;-79
2021/04/30 05:13:13;;;;;;;;;;;;;;;6.03;97.86;101128.38;5046326;28;1967;-79
2021/04/30 05:15:38;;;;;;;;;;;;;;;6.13;97.71;101138.34;5029832;28;1672;-79
2021/04/30 05:18:04;;;;;;;;;;;;;;;6.19;97.31;101137.09;5029642;28;1794;-79
2021/04/30 05:20:29;;;;;;;;;;;;;;;6.18;96.84;101141.78;5050306;28;1769;-79
2021/04/30 05:22:55;;;;;;;;;;;;;;;6.25;96.46;101148.78;5051920;28;1929;-81
2021/04/30 05:25:20;;;;;;;;;;;;;;;6.37;96.64;101138.09;5050285;28;1857;-79
2021/04/30 05:27:45;;;;;;;;;;;;;;;6.49;96.45;101146.59;5047841;28;2109;-79
2021/04/30 05:30:12;;;;;;;;;;;;;;;6.68;96.27;101149.19;5035416;28;1699;-79
2021/04/30 05:32:37;;;;;;;;;;;;;;;6.76;95.52;101153.91;5031879;28;2914;-77
2021/04/30 05:35:04;;;;;;;;;;;;;;;6.88;95.05;101160.81;5034949;28;3357;-78
2021/04/30 05:37:30;;;;;;;;;;;;;;;6.92;94.75;101159.03;5035973;28;1908;-77
2021/04/30 05:39:57;;;;;;;;;;;;;;;6.97;93.94;101158.91;5042839;28;2633;-78
2021/04/30 05:42:23;;;;;;;;;;;;;;;7.08;93.88;101165.81;5043289;28;864;-79
2021/04/30 05:44:48;;;;;;;;;;;;;;;7.20;93.55;101172.66;5046195;28;1603;-78
2021/04/30 05:47:14;;;;;;;;;;;;;;;7.28;93.21;101169.97;5033953;28;1928;-78
2021/04/30 05:49:39;;;;;;;;;;;;;;;7.42;93.25;101175.38;5039113;28;1977;-79
2021/04/30 05:52:05;;;;;;;;;;;;;;;7.55;93.10;101176.44;5047789;28;2737;-78
2021/04/30 05:54:31;;;;;;;;;;;;;;;7.63;92.71;101167.44;5045675;28;1709;-78
2021/04/30 05:56:56;;;;;;;;;;;;;;;7.77;92.34;101167.34;5046785;28;1985;-79
2021/04/30 05:59:21;;;;;;;;;;;;;;;8.00;91.15;101167.25;5039288;28;2036;-79
2021/04/30 06:01:47;;;;;;;;;;;;;;;8.22;89.69;101169.13;5041110;28;791;-78
2021/04/30 06:04:12;;;;;;;;;;;;;;;8.48;89.40;101163.69;5040475;28;1945;-78
2021/04/30 06:06:37;;;;;;;;;;;;;;;8.60;88.64;101163.88;5036819;28;1208;-78
2021/04/30 06:09:03;;;;;;;;;;;;;;;8.78;87.99;101161.91;5027078;28;1895;-79
2021/04/30 06:11:28;;;;;;;;;;;;;;;9.00;88.73;101165.66;5023496;28;1167;-79
2021/04/30 06:13:53;;;;;;;;;;;;;;;9.21;86.66;101165.78;5041340;28;2110;-79
2021/04/30 06:16:19;;;;;;;;;;;;;;;9.44;85.67;101168.34;5037725;28;1190;-78
2021/04/30 06:18:44;;;;;;;;;;;;;;;9.49;85.41;101168.16;5029926;28;1890;-79
2021/04/30 06:21:10;;;;;;;;;;;;;;;9.51;85.83;101166.69;5035627;28;1875;-79
2021/04/30 06:23:36;;;;;;;;;;;;;;;9.45;85.50;101168.00;5045303;28;1756;-79
2021/04/30 06:26:01;;;;;;;;;;;;;;;9.43;85.20;101175.81;5039068;28;1970;-81
2021/04/30 06:28:26;;;;;;;;;;;;;;;9.46;86.64;101177.09;5034129;28;1906;-79
2021/04/30 06:30:51;;;;;;;;;;;;;;;9.36;86.23;101184.56;5048000;28;2130;-78
2021/04/30 06:33:17;;;;;;;;;;;;;;;9.26;86.69;101182.16;5046613;28;1631;-78
2021/04/30 06:35:42;;;;;;;;;;;;;;;9.31;86.49;101189.41;5046834;28;821;-78
2021/04/30 06:38:07;;;;;;;;;;;;;;;9.33;87.13;101193.50;5041616;28;2037;-78
2021/04/30 06:40:33;;;;;;;;;;;;;;;9.28;86.43;101195.63;5038497;28;1109;-78
2021/04/30 06:42:59;;;;;;;;;;;;;;;9.29;86.44;101191.69;5021637;28;1733;-78
2021/04/30 06:45:24;;;;;;;;;;;;;;;9.22;86.25;101195.78;5024646;28;1870;-79
2021/04/30 06:47:50;;;;;;;;;;;;;;;9.28;85.79;101198.38;5040893;28;1942;-78
2021/04/30 06:50:15;;;;;;;;;;;;;;;9.31;83.98;101198.53;5040570;28;834;-78
2021/04/30 06:52:40;;;;;;;;;;;;;;;9.44;83.44;101188.44;5032680;28;1930;-78
2021/04/30 06:55:07;;;;;;;;;;;;;;;9.70;83.92;101193.88;5038922;28;2148;-78
2021/04/30 06:57:33;;;;;;;;;;;;;;;9.72;79.56;101186.09;5036602;28;1586;-78
2021/04/30 06:59:58;;;;;;;;;;;;;;;9.73;80.62;101193.22;5037229;28;2060;-78
2021/04/30 07:02:23;;;;;;;;;;;;;;;9.81;78.93;101197.09;5025209;28;1594;-78
2021/04/30 07:04:49;;;;;;;;;;;;;;;9.89;78.00;101190.72;5031231;28;2194;-77
2021/04/30 07:07:15;;;;;;;;;;;;;;;10.01;78.80;101201.06;5036046;28;2002;-78
2021/04/30 07:09:40;;;;;;;;;;;;;;;10.32;79.44;101205.50;5036760;28;1815;-78
2021/04/30 07:12:06;;;;;;;;;;;;;;;10.79;76.75;101204.56;5044633;28;1847;-78
2021/04/30 07:14:31;;;;;;;;;;;;;;;11.27;75.80;101203.19;5040908;28;1661;-78
2021/04/30 07:16:56;;;;;;;;;;;;;;;11.46;70.53;101210.97;5041424;28;1610;-78
2021/04/30 07:19:22;;;;;;;;;;;;;;;11.33;71.32;101206.53;5038845;28;1985;-79
2021/04/30 07:21:47;;;;;;;;;;;;;;;11.37;67.63;101207.47;5043347;28;1670;-79
2021/04/30 07:24:12;;;;;;;;;;;;;;;11.42;71.02;101207.25;5040335;28;2743;-79
2021/04/30 07:26:38;;;;;;;;;;;;;;;11.83;72.76;101209.13;5037537;28;1712;-79
2021/04/30 07:29:03;;;;;;;;;;;;;;;12.17;69.88;101207.09;5030464;28;2002;-79
2021/04/30 07:31:28;;;;;;;;;;;;;;;12.28;69.03;101201.88;5041951;28;1817;-78
2021/04/30 07:33:54;;;;;;;;;;;;;;;12.01;66.56;101208.94;5042836;28;1040;-79
2021/04/30 07:36:19;;;;;;;;;;;;;;;12.20;67.75;101211.94;5042454;28;1630;-78
2021/04/30 07:38:45;;;;;;;;;;;;;;;13.27;68.71;101207.19;5028078;28;1840;-79
2021/04/30 07:41:10;;;;;;;;;;;;;;;15.63;62.98;101191.66;5034792;28;2014;-79
2021/04/30 07:43:36;;;;;;;;;;;;;;;17.32;57.18;101199.78;5035197;28;1861;-78
2021/04/30 07:46:01;;;;;;;;;;;;;;;18.22;50.53;101193.06;5044839;28;785;-79
2021/04/30 07:48:28;;;;;;;;;;;;;;;18.58;46.58;101200.84;5030598;28;1967;-79
2021/04/30 07:50:54;;;;;;;;;;;;;;;19.08;45.68;101201.13;5038054;28;1954;-79
2021/04/30 07:53:19;;;;;;;;;;;;;;;19.85;46.56;101202.97;5036862;28;1308;-79
2021/04/30 07:55:44;;;;;;;;;;;;;;;18.11;44.04;101200.53;5042779;28;1679;-79
2021/04/30 07:58:10;;;;;;;;;;;;;;;17.53;46.31;101201.97;5037565;28;1536;-79
2021/04/30 08:00:35;;;;;;;;;;;;;;;17.87;51.22;101201.94;5037054;28;1711;-79
2021/04/30 08:03:01;;;;;;;;;;;;;;;19.28;47.95;101206.44;5033158;28;1674;-79
2021/04/30 08:05:26;;;;;;;;;;;;;;;19.86;41.99;101198.94;5041705;28;1562;-79
2021/04/30 08:07:53;;;;;;;;;;;;;;;19.07;40.97;101204.34;5041068;28;2483;-79
2021/04/30 08:10:18;;;;;;;;;;;;;;;17.81;44.40;101220.22;5041795;28;1019;-79
2021/04/30 08:12:43;;;;;;;;;;;;;;;16.47;46.46;101216.94;5042170;28;991;-79
2021/04/30 08:15:11;;;;;;;;;;;;;;;15.27;47.73;101216.00;5033161;28;1607;-79
2021/04/30 08:17:36;;;;;;;;;;;;;;;15.58;49.55;101222.56;5013730;28;873;-78
2021/04/30 08:20:04;;;;;;;;;;;;;;;15.37;49.27;101223.78;5025175;28;1723;-78
2021/04/30 08:22:30;;;;;;;;;;;;;;;15.48;50.07;101228.75;5037956;28;1014;-78
2021/04/30 08:24:55;;;;;;;;;;;;;;;15.88;51.09;101225.53;5037447;28;1863;-78
2021/04/30 08:27:22;;;;;;;;;;;;;;;16.52;48.59;101230.53;5032775;28;1955;-78
2021/04/30 08:29:48;;;;;;;;;;;;;;;16.52;47.14;101238.91;5033385;28;1689;-79
2021/04/30 08:32:14;;;;;;;;;;;;;;;15.96;47.88;101245.97;5040564;28;908;-78
2021/04/30 08:34:40;;;;;;;;;;;;;;;14.91;48.52;101250.63;5051482;28;2091;-78
2021/04/30 08:37:05;;;;;;;;;;;;;;;14.32;49.39;101255.19;5015973;28;1453;-78
2021/04/30 08:39:31;;;;;;;;;;;;;;;13.95;51.36;101256.25;5013461;28;2085;-79
2021/04/30 08:41:57;;;;;;;;;;;;;;;13.87;52.03;101260.00;5038355;28;1769;-78
2021/04/30 08:44:22;;;;;;;;;;;;;;;13.68;53.97;101263.44;5035368;28;2411;-78
2021/04/30 08:46:48;;;;;;;;;;;;;;;13.84;54.07;101255.16;5036374;28;1687;-78
2021/04/30 08:49:13;;;;;;;;;;;;;;;14.34;53.16;101256.41;5035252;28;2281;-78
2021/04/30 08:51:39;;;;;;;;;;;;;;;14.75;51.35;101247.88;5038163;28;971;-78
2021/04/30 08:54:06;;;;;;;;;;;;;;;15.35;50.83;101244.81;5037251;28;2136;-78
2021/04/30 08:56:31;;;;;;;;;;;;;;;16.29;48.29;101244.53;5043319;28;861;-78
2021/04/30 08:58:57;;;;;;;;;;;;;;;17.32;47.34;101249.19;5040809;28;1938;-78
2021/04/30 09:01:23;;;;;;;;;;;;;;;17.93;41.93;101241.50;5040396;28;1058;-79
2021/04/30 09:03:50;;;;;;;;;;;;;;;18.41;42.35;101238.72;5026878;28;2087;-78
2021/04/30 09:06:18;;;;;;;;;;;;;;;18.91;42.52;101243.84;5024472;28;1826;-78
2021/04/30 09:08:46;;;;;;;;;;;;;;;19.44;41.59;101245.28;5020366;28;1961;-78
2021/04/30 09:11:33;;;;;;;;;;;;;;;20.64;39.65;101240.22;5020990;28;932;-78
2021/04/30 09:14:17;;;;;;;;;;;;;;;22.12;35.36;101239.50;5023439;28;2150;-78
2021/04/30 09:17:15;;;;;;;;;;;;;;;23.49;34.55;101230.41;5023021;28;848;-78
2021/04/30 09:19:51;;;;;;;;;;;;;;;24.58;32.26;101225.44;5035366;28;1753;-79
2021/04/30 09:22:30;;;;;;;;;;;;;;;25.74;29.68;101225.88;5041461;28;1169;-78
2021/04/30 09:25:00;;;;;;;;;;;;;;;26.38;29.38;101227.13;5039337;28;1934;-78
2021/04/30 09:27:33;;;;;;;;;;;;;;;27.26;28.06;101217.84;5026032;28;2095;-79
2021/04/30 09:30:19;;;;;;;;;;;;;;;28.48;24.65;101205.38;5034112;28;2191;-78
2021/04/30 09:33:10;;;;;;;;;;;;;;;28.43;23.88;101203.94;5041050;28;2189;-76
2021/04/30 09:35:40;;;;;;;;;;;;;;;28.95;25.13;101192.34;5034381;28;2384;-78
2021/04/30 09:38:15;;;;;;;;;;;;;;;29.41;23.80;101199.09;5035429;28;2199;-77
2021/04/30 09:40:41;;;;;;;;;;;;;;;29.70;22.71;101197.94;5027792;28;2023;-77
2021/04/30 09:43:08;;;;;;;;;;;;;;;30.19;22.17;101188.59;5019852;28;2457;-76
2021/04/30 09:45:34;;;;;;;;;;;;;;;30.53;22.50;101189.56;5030545;28;2422;-77
2021/04/30 09:48:09;;;;;;;;;;;;;;;30.84;22.50;101191.44;5034288;28;2106;-78
2021/04/30 09:50:35;;;;;;;;;;;;;;;30.73;21.28;101194.00;5031164;28;2157;-77
2021/04/30 09:53:05;;;;;;;;;;;;;;;31.19;21.42;101193.94;5037496;28;983;-76
2021/04/30 09:56:01;;;;;;;;;;;;;;;30.18;18.52;101189.06;5028284;28;2301;-77
2021/04/30 09:58:26;;;;;;;;;;;;;;;30.66;20.19;101186.56;5030136;28;2406;-78
2021/04/30 10:00:54;;;;;;;;;;;;;;;30.83;20.80;101186.22;5050292;28;2363;-78
2021/04/30 10:03:22;;;;;;;;;;;;;;;31.90;19.05;101179.53;5028787;28;2453;-77
2021/04/30 10:06:12;;;;;;;;;;;;;;;31.19;19.08;101184.59;5035954;28;1961;-78
2021/04/30 10:08:38;;;;;;;;;;;;;;;31.56;19.66;101188.13;5028847;28;2482;-78
2021/04/30 10:11:03;;;;;;;;;;;;;;;32.04;18.22;101190.22;5027160;28;2208;-78
2021/04/30 10:13:30;;;;;;;;;;;;;;;31.60;17.53;101191.56;5030729;28;2611;-77
2021/04/30 10:15:55;;;;;;;;;;;;;;;31.93;18.13;101193.63;5035282;28;2335;-78
2021/04/30 10:18:20;;;;;;;;;;;;;;;32.80;18.09;101182.16;5030401;28;2273;-78
2021/04/30 10:20:47;;;;;;;;;;;;;;;32.94;18.17;101176.94;5037546;28;880;-78
2021/04/30 10:23:20;;;;;;;;;;;;;;;32.65;17.42;101175.63;5035171;28;2844;-77
2021/04/30 10:25:49;;;;;;;;;;;;;;;33.63;15.22;101174.69;5037492;28;1923;-78
2021/04/30 10:28:26;;;;;;;;;;;;;;;33.82;15.75;101168.72;5028696;28;1945;-76
2021/04/30 10:31:00;;;;;;;;;;;;;;;33.70;16.94;101171.44;5035785;28;1594;-77
2021/04/30 10:33:41;;;;;;;;;;;;;;;33.53;15.43;101171.19;5033295;28;1951;-78
2021/04/30 10:36:28;;;;;;;;;;;;;;;31.52;16.82;101178.94;5032938;28;1751;-78
2021/04/30 10:38:54;;;;;;;;;;;;;;;31.58;15.67;101173.34;5017392;28;1959;-78
2021/04/30 10:41:32;;;;;;;;;;;;;;;32.38;16.36;101165.22;5025136;28;2039;-78
2021/04/30 10:44:26;;;;;;;;;;;;;;;31.10;15.44;101174.78;5037403;28;842;-77
2021/04/30 10:47:12;;;;;;;;;;;;;;;30.10;16.06;101184.94;5036832;28;1898;-79
2021/04/30 10:49:39;;;;;;;;;;;;;;;29.21;17.88;101182.44;5031159;28;1307;-77
2021/04/30 10:52:15;;;;;;;;;;;;;;;27.21;19.38;101188.78;5035976;28;1769;-77
2021/04/30 10:54:42;;;;;;;;;;;;;;;25.59;22.29;101189.47;5036913;28;856;-77
2021/04/30 10:57:08;;;;;;;;;;;;;;;24.30;22.62;101187.25;5036723;28;1936;-77
2021/04/30 10:59:36;;;;;;;;;;;;;;;23.40;23.79;101187.88;5029943;28;2207;-77
2021/04/30 11:02:20;;;;;;;;;;;;;;;22.51;24.92;101196.97;5036195;28;2398;-77
2021/04/30 11:05:11;;;;;;;;;;;;;;;24.12;23.84;101181.94;5034628;28;1555;-78
2021/04/30 11:07:47;;;;;;;;;;;;;;;24.75;20.54;101130.34;5022196;28;1922;-77
2021/04/30 11:10:33;;;;;;;;;;;;;;;24.02;23.05;101192.16;5023110;28;2064;-76
2021/04/30 11:13:00;;;;;;;;;;;;;;;22.90;24.79;101194.94;5033477;28;2262;-77
2021/04/30 11:15:30;;;;;;;;;;;;;;;21.22;26.78;101206.31;5034256;28;2111;-77
2021/04/30 11:18:01;;;;;;;;;;;;;;;19.07;29.93;101210.75;5022901;28;2049;-77
2021/04/30 11:20:30;;;;;;;;;;;;;;;18.82;30.57;101209.78;5035337;28;2103;-77
2021/04/30 11:23:17;;;;;;;;;;;;;;;19.08;30.71;101214.34;5036358;28;1694;-77
2021/04/30 11:25:57;;;;;;;;;;;;;;;19.11;30.99;101205.16;5040096;28;921;-78
2021/04/30 11:28:25;;;;;;;;;;;;;;;19.21;29.96;101206.41;5037389;28;2260;-78
2021/04/30 11:31:09;;;;;;;;;;;;;;;18.49;30.92;101217.97;5031795;28;1830;-78
2021/04/30 11:33:40;;;;;;;;;;;;;;;18.21;32.18;101213.00;5036433;28;1888;-78
2021/04/30 11:36:12;;;;;;;;;;;;;;;17.59;31.91;101216.41;5036175;28;2051;-79
2021/04/30 11:38:38;;;;;;;;;;;;;;;17.41;33.14;101219.78;5034040;28;2197;-78
2021/04/30 11:41:05;;;;;;;;;;;;;;;18.03;33.51;101219.25;5035466;28;2669;-78
2021/04/30 11:43:30;;;;;;;;;;;;;;;17.85;32.68;101224.63;5029739;28;2234;-78
2021/04/30 11:45:56;;;;;;;;;;;;;;;17.28;33.45;101238.78;5028850;28;1856;-78
2021/04/30 11:48:26;;;;;;;;;;;;;;;17.03;35.81;101229.31;5030235;28;1952;-78
2021/04/30 11:51:06;;;;;;;;;;;;;;;16.63;36.18;101234.31;5017798;28;1907;-78
2021/04/30 11:53:37;;;;;;;;;;;;;;;16.66;37.03;101228.00;5021783;28;1941;-78
2021/04/30 11:56:04;;;;;;;;;;;;;;;16.45;37.39;101241.59;5034823;28;2058;-78
2021/04/30 11:58:41;;;;;;;;;;;;;;;16.64;37.18;101235.09;5022895;28;2376;-78
2021/04/30 12:01:08;;;;;;;;;;;;;;;16.92;36.51;101234.72;5030720;28;3817;-78
2021/04/30 12:03:52;;;;;;;;;;;;;;;16.77;35.09;101230.91;5016775;28;2986;-78
2021/04/30 12:06:22;;;;;;;;;;;;;;;16.34;37.16;101236.66;5029732;28;2921;-79
2021/04/30 12:08:50;;;;;;;;;;;;;;;16.51;36.99;101232.53;5027897;28;1612;-78
2021/04/30 12:11:29;;;;;;;;;;;;;;;16.74;37.08;101228.88;5029416;28;2084;-78
2021/04/30 12:13:58;;;;;;;;;;;;;;;17.13;36.07;101237.00;5035700;28;1386;-78
2021/04/30 12:16:24;;;;;;;;;;;;;;;16.77;36.71;101230.91;5030108;28;1889;-78
2021/04/30 12:18:55;;;;;;;;;;;;;;;16.83;36.53;101231.38;5023240;28;2535;-80
2021/04/30 12:21:24;;;;;;;;;;;;;;;17.26;36.61;101227.19;5023063;28;1811;-77
2021/04/30 12:23:51;;;;;;;;;;;;;;;17.56;36.27;101220.78;5013910;28;1003;-77
2021/04/30 12:26:26;;;;;;;;;;;;;;;17.74;36.50;101223.72;5015414;28;2101;-78
2021/04/30 12:28:54;;;;;;;;;;;;;;;17.36;36.40;101222.94;5035007;28;1241;-77
2021/04/30 12:31:19;;;;;;;;;;;;;;;17.32;35.91;101230.47;5036819;28;2205;-77
2021/04/30 12:33:47;;;;;;;;;;;;;;;17.34;36.56;101228.09;5039647;28;972;-77
2021/04/30 12:36:15;;;;;;;;;;;;;;;17.37;36.89;101230.13;5029524;28;2078;-78
2021/04/30 12:38:47;;;;;;;;;;;;;;;16.66;38.43;101227.16;5023814;28;2182;-77
2021/04/30 12:41:16;;;;;;;;;;;;;;;16.09;40.46;101229.84;5039053;28;2067;-78
2021/04/30 12:43:42;;;;;;;;;;;;;;;15.92;40.28;101220.84;5039313;28;845;-77
2021/04/30 12:46:19;;;;;;;;;;;;;;;15.62;40.76;101229.00;5030965;28;1918;-78
2021/04/30 12:48:47;;;;;;;;;;;;;;;15.35;41.37;101222.53;5019185;28;1229;-78
2021/04/30 12:51:14;;;;;;;;;;;;;;;15.09;42.54;101228.75;5020468;28;2137;-77
2021/04/30 12:53:44;;;;;;;;;;;;;;;14.83;41.92;101231.00;5019334;28;912;-77
2021/04/30 12:56:24;;;;;;;;;;;;;;;14.97;41.89;101224.94;5026601;28;2134;-77